Brooklyn, Kentucky
Current Conditions -  °F | °C
As of 3:53 PM on Tuesday 21 Oct 2014 (Local Time) from KBWG Reporting Station
Scattered Clouds Scattered Clouds  
Wind Chill: 68°   Ceiling: Unl
Heat Index: 68°   Visibility: 10mi
Dew Point: 42°   Wind: 10mph
Humidity: 39%   Direction: 310°NW
Pressure: 30.05"   Gusts: NA
Location:  37.29°N, 86.58°W
Report Text: KBWG 212053Z AUTO 31009KT 10SM SCT055 20/06 A3005 RMK AO2 SLP174 T02000056 55002
Loading
Personal Weather Stations






























Interactive Weather Map
Tropical Storm Tracking
New forecast layout! Learn more

10-Day Weather Forecast

Advertisements
Track Severe Weather on mobile